Time;durP1;ratioP1;P1;durP2;ratioP2;P2;SDS_P1;SDS_P2;PMS_P1;PMS_P2;Temp;Humidity;BMP_temperature;BMP_pressure;BME280_temperature;BME280_humidity;BME280_pressure;Samples;Min_cycle;Max_cycle;Signal;HPM_P1;HPM_P2
2023/03/02 00:01:25;;;;;;;6.60;5.83;;;;;;;7.10;100.00;95214.44;5054446;28;20446;-73
2023/03/02 00:03:57;;;;;;;6.73;5.47;;;;;;;7.18;100.00;95209.53;5054456;28;20511;-72
2023/03/02 00:06:24;;;;;;;10.10;6.27;;;;;;;7.02;100.00;95208.91;5054586;28;20447;-73
2023/03/02 00:08:52;;;;;;;7.70;5.20;;;;;;;7.04;100.00;95212.25;5054068;28;20457;-73
2023/03/02 00:11:19;;;;;;;6.03;4.57;;;;;;;7.02;100.00;95208.91;5054334;28;20458;-72
2023/03/02 00:13:45;;;;;;;4.63;4.23;;;;;;;7.19;100.00;95215.59;5054147;28;20446;-72
2023/03/02 00:16:12;;;;;;;4.33;3.93;;;;;;;7.28;100.00;95208.03;5054039;28;20490;-72
2023/03/02 00:18:39;;;;;;;5.17;4.63;;;;;;;7.35;100.00;95205.81;5054044;28;20509;-73
2023/03/02 00:21:09;;;;;;;4.60;4.20;;;;;;;7.39;100.00;95200.28;5054087;28;20499;-73
2023/03/02 00:23:36;;;;;;;3.63;3.33;;;;;;;7.41;100.00;95201.03;5053819;28;20456;-72
2023/03/02 00:26:03;;;;;;;4.70;3.90;;;;;;;7.44;100.00;95199.97;5054027;28;20500;-73
2023/03/02 00:28:30;;;;;;;4.10;3.50;;;;;;;7.44;100.00;95205.19;5053731;28;20459;-73
2023/03/02 00:30:57;;;;;;;4.47;3.80;;;;;;;7.52;100.00;95202.06;5053860;28;20947;-72
2023/03/02 00:33:23;;;;;;;5.47;4.80;;;;;;;7.58;100.00;95193.84;5053911;28;20449;-73
2023/03/02 00:35:50;;;;;;;5.40;4.20;;;;;;;7.62;100.00;95196.13;5053071;28;20482;-72
2023/03/02 00:38:18;;;;;;;3.53;3.23;;;;;;;7.62;100.00;95190.06;5053572;28;20851;-72
2023/03/02 00:40:46;;;;;;;5.03;4.00;;;;;;;7.59;100.00;95190.28;5053607;28;20443;-73
2023/03/02 00:43:13;;;;;;;3.50;3.20;;;;;;;7.66;100.00;95173.25;5053478;28;20999;-72
2023/03/02 00:45:40;;;;;;;5.23;4.07;;;;;;;7.68;100.00;95163.53;5053295;28;20459;-71
2023/03/02 00:48:07;;;;;;;4.60;4.20;;;;;;;7.63;100.00;95169.06;5053030;28;20866;-72
2023/03/02 00:50:39;;;;;;;3.27;2.97;;;;;;;7.55;100.00;95165.31;5052661;28;20450;-70
2023/03/02 00:53:07;;;;;;;3.43;2.77;;;;;;;7.49;100.00;95166.56;5053394;28;20511;-71
2023/03/02 00:55:35;;;;;;;3.30;3.00;;;;;;;7.43;100.00;95167.81;5053175;28;20566;-73
2023/03/02 00:58:02;;;;;;;4.00;2.87;;;;;;;7.26;100.00;95162.91;5017887;28;20516;-71
2023/03/02 01:00:29;;;;;;;3.90;2.43;;;;;;;7.30;100.00;95159.16;5053444;28;20450;-73
2023/03/02 01:02:56;;;;;;;2.50;2.27;;;;;;;7.24;100.00;95162.19;5034207;28;20837;-73
2023/03/02 01:05:24;;;;;;;6.90;3.00;;;;;;;7.11;100.00;95151.72;5053153;28;20473;-72
2023/03/02 01:07:51;;;;;;;4.07;3.03;;;;;;;6.95;100.00;95148.47;5050760;28;20511;-72
2023/03/02 01:10:17;;;;;;;3.70;3.40;;;;;;;7.02;100.00;95147.13;5052946;28;20450;-72
2023/03/02 01:12:46;;;;;;;4.33;4.00;;;;;;;7.00;100.00;95141.19;5052756;28;21019;-72
2023/03/02 01:15:12;;;;;;;5.20;4.70;;;;;;;7.08;100.00;95151.09;5053052;28;20495;-72
2023/03/02 01:17:41;;;;;;;3.13;2.77;;;;;;;6.96;100.00;95139.72;5017457;28;20442;-72
2023/03/02 01:20:11;;;;;;;2.53;2.33;;;;;;;6.96;100.00;95137.09;5052951;28;21008;-72
2023/03/02 01:22:38;;;;;;;3.07;2.77;;;;;;;6.88;100.00;95141.13;5052781;28;20794;-73
2023/03/02 01:25:05;;;;;;;2.30;2.10;;;;;;;6.69;100.00;95139.75;5052806;28;20477;-73
2023/03/02 01:27:32;;;;;;;2.87;2.27;;;;;;;6.44;100.00;95139.69;5053004;28;20534;-72
2023/03/02 01:30:01;;;;;;;3.07;2.73;;;;;;;6.40;100.00;95143.44;5052714;28;20529;-72
2023/03/02 01:32:27;;;;;;;3.37;3.07;;;;;;;6.62;100.00;95135.03;5052727;28;20834;-73
2023/03/02 01:34:54;;;;;;;2.40;2.20;;;;;;;6.63;100.00;95140.13;5052709;28;20514;-73
2023/03/02 01:37:21;;;;;;;6.63;5.97;;;;;;;6.71;100.00;95131.84;5052611;28;20446;-73
2023/03/02 01:39:48;;;;;;;4.47;3.70;;;;;;;6.77;100.00;95123.59;5052747;28;20486;-73
2023/03/02 01:42:15;;;;;;;3.73;3.40;;;;;;;6.75;100.00;95120.25;5052610;28;20485;-73
2023/03/02 01:44:44;;;;;;;5.37;4.50;;;;;;;6.86;100.00;95122.16;5052493;28;20476;-73
2023/03/02 01:47:17;;;;;;;3.67;3.30;;;;;;;6.94;100.00;95125.06;5051808;28;20439;-73
2023/03/02 01:49:49;;;;;;;6.63;4.20;;;;;;;7.00;100.00;95122.91;5051599;28;20435;-72
2023/03/02 01:52:17;;;;;;;3.97;3.57;;;;;;;7.01;100.00;95119.38;5052681;28;20450;-72
2023/03/02 01:54:48;;;;;;;2.70;2.50;;;;;;;7.04;100.00;95119.16;5052517;28;20848;-73
2023/03/02 01:57:19;;;;;;;2.90;2.53;;;;;;;7.11;100.00;95128.22;5052579;28;20455;-73
2023/03/02 01:59:46;;;;;;;2.63;2.40;;;;;;;7.09;100.00;95121.44;5052118;28;20918;-73
2023/03/02 02:02:14;;;;;;;2.33;2.13;;;;;;;6.93;100.00;95120.78;5052265;28;20450;-73
2023/03/02 02:04:45;;;;;;;2.53;2.33;;;;;;;7.00;100.00;95122.09;5051963;28;20998;-70
2023/03/02 02:07:12;;;;;;;2.33;2.03;;;;;;;6.96;100.00;95125.84;5052502;28;20453;-73
2023/03/02 02:09:41;;;;;;;2.37;1.90;;;;;;;7.04;100.00;95119.16;5052247;28;20447;-73
2023/03/02 02:12:13;;;;;;;2.10;1.90;;;;;;;6.86;100.00;95124.75;5052239;28;20457;-73
2023/03/02 02:14:40;;;;;;;1.87;1.77;;;;;;;6.84;100.00;95117.88;5052037;28;20480;-73
2023/03/02 02:17:08;;;;;;;1.87;1.77;;;;;;;6.77;100.00;95128.81;5052236;28;20443;-72
2023/03/02 02:19:53;;;;;;;2.30;2.10;;;;;;;6.78;100.00;95123.50;5052175;28;20446;-73
2023/03/02 02:22:32;;;;;;;2.97;2.67;;;;;;;6.61;100.00;95125.53;5052306;28;20828;-72
2023/03/02 02:25:03;;;;;;;2.43;2.23;;;;;;;6.60;100.00;95129.06;5051865;28;20921;-72
2023/03/02 02:27:32;;;;;;;2.60;2.40;;;;;;;6.70;100.00;95127.56;5052323;28;20442;-73
2023/03/02 02:30:02;;;;;;;3.10;2.70;;;;;;;6.69;100.00;95126.72;5052244;28;20437;-72
2023/03/02 02:32:32;;;;;;;2.40;2.20;;;;;;;6.49;100.00;95127.19;5052341;28;20465;-73
2023/03/02 02:35:04;;;;;;;3.13;2.77;;;;;;;6.55;100.00;95118.13;5051785;28;21048;-72
2023/03/02 02:37:34;;;;;;;2.70;2.50;;;;;;;6.43;100.00;95117.16;5052016;28;20480;-72
2023/03/02 02:40:06;;;;;;;3.30;2.77;;;;;;;6.45;100.00;95120.50;5051789;28;20453;-72
2023/03/02 02:42:38;;;;;;;2.90;2.70;;;;;;;6.31;100.00;95117.94;5051995;28;20941;-71
2023/03/02 02:45:07;;;;;;;3.13;2.93;;;;;;;6.29;100.00;95117.19;5050991;28;20433;-72
2023/03/02 02:47:34;;;;;;;2.40;2.20;;;;;;;6.32;100.00;95122.22;5051706;28;20446;-73
2023/03/02 02:50:01;;;;;;;2.63;2.50;;;;;;;6.27;100.00;95114.69;5052001;28;20449;-72
2023/03/02 02:52:29;;;;;;;3.30;3.00;;;;;;;6.26;100.00;95123.44;5052157;28;20822;-73
2023/03/02 02:54:57;;;;;;;3.93;3.00;;;;;;;6.34;100.00;95107.31;5051779;28;20446;-72
2023/03/02 02:57:28;;;;;;;2.80;2.50;;;;;;;6.38;100.00;95106.19;5051988;28;21119;-73
2023/03/02 03:00:00;;;;;;;4.83;3.20;;;;;;;6.22;100.00;95109.78;5036938;28;20920;-73
2023/03/02 03:02:29;;;;;;;3.47;3.17;;;;;;;6.35;100.00;95106.38;5055444;28;20441;-72
2023/03/02 03:05:01;;;;;;;2.83;2.50;;;;;;;6.26;100.00;95094.78;5055401;28;20849;-73
2023/03/02 03:07:29;;;;;;;3.10;2.90;;;;;;;6.32;100.00;95098.75;5037385;28;20510;-72
2023/03/02 03:10:01;;;;;;;3.20;2.90;;;;;;;6.29;100.00;95093.75;5055604;28;20779;-73
2023/03/02 03:12:31;;;;;;;2.60;2.40;;;;;;;6.27;100.00;95104.28;5055285;28;20450;-72
2023/03/02 03:15:00;;;;;;;6.13;2.57;;;;;;;6.37;100.00;95104.53;5055214;28;20446;-73
2023/03/02 03:17:27;;;;;;;3.37;3.07;;;;;;;6.32;100.00;95101.38;5054942;28;20481;-72
2023/03/02 03:19:53;;;;;;;2.93;2.73;;;;;;;6.27;100.00;95095.63;5036307;28;20965;-72
2023/03/02 03:22:20;;;;;;;4.70;2.80;;;;;;;6.30;100.00;95103.25;5055020;28;20929;-73
2023/03/02 03:24:47;;;;;;;3.17;2.90;;;;;;;6.28;100.00;95103.34;5055147;28;20464;-72
2023/03/02 03:27:15;;;;;;;3.97;2.80;;;;;;;6.46;100.00;95102.16;5054826;28;20450;-72
2023/03/02 03:29:47;;;;;;;3.17;2.60;;;;;;;6.50;100.00;95102.78;5055153;28;20846;-72
2023/03/02 03:32:16;;;;;;;3.03;2.70;;;;;;;6.60;100.00;95098.63;5054900;28;20860;-72
2023/03/02 03:34:43;;;;;;;2.67;2.47;;;;;;;6.72;100.00;95103.06;5035882;28;20987;-72
2023/03/02 03:37:13;;;;;;;3.60;3.30;;;;;;;6.71;100.00;95104.00;5054758;28;20882;-72
2023/03/02 03:39:40;;;;;;;3.30;3.10;;;;;;;6.77;100.00;95105.34;5019445;28;20442;-72
2023/03/02 03:42:06;;;;;;;3.10;2.90;;;;;;;6.77;100.00;95113.16;5054671;28;20457;-73
2023/03/02 03:44:33;;;;;;;3.30;3.00;;;;;;;6.83;100.00;95105.78;5054508;28;20511;-72
2023/03/02 03:47:00;;;;;;;3.37;3.13;;;;;;;6.79;100.00;95103.47;5054866;28;20483;-73
2023/03/02 03:49:29;;;;;;;3.00;2.80;;;;;;;6.88;100.00;95107.22;5054523;28;20953;-72
2023/03/02 03:51:56;;;;;;;5.50;3.53;;;;;;;6.83;100.00;95108.38;5054626;28;20452;-73
2023/03/02 03:54:22;;;;;;;3.53;3.10;;;;;;;6.82;100.00;95104.09;5054365;28;20450;-73
2023/03/02 03:56:50;;;;;;;3.63;3.33;;;;;;;6.68;100.00;95109.41;5054286;28;20562;-72
2023/03/02 03:59:20;;;;;;;3.70;3.37;;;;;;;6.69;100.00;95111.09;5054283;28;20851;-72
2023/03/02 04:01:49;;;;;;;3.80;3.40;;;;;;;6.62;100.00;95101.97;5019549;28;20780;-73
2023/03/02 04:04:19;;;;;;;3.43;3.03;;;;;;;6.59;100.00;95103.94;5054307;28;20452;-73
2023/03/02 04:06:47;;;;;;;3.50;3.07;;;;;;;6.60;100.00;95105.63;5019432;28;20512;-73
2023/03/02 04:09:14;;;;;;;3.47;3.17;;;;;;;6.52;100.00;95106.97;5053727;28;20446;-72
2023/03/02 04:11:43;;;;;;;4.90;3.63;;;;;;;6.48;100.00;95104.66;5053863;28;20446;-71
2023/03/02 04:14:11;;;;;;;3.90;3.50;;;;;;;6.58;100.00;95102.28;5054270;28;20442;-72
2023/03/02 04:16:39;;;;;;;6.90;4.37;;;;;;;6.50;100.00;95102.78;5054202;28;20489;-73
2023/03/02 04:19:08;;;;;;;3.80;3.50;;;;;;;6.47;100.00;95100.38;5054132;28;20458;-72
2023/03/02 04:21:35;;;;;;;4.73;4.20;;;;;;;6.46;100.00;95109.13;5053794;28;20445;-72
2023/03/02 04:24:04;;;;;;;3.50;3.20;;;;;;;6.31;100.00;95107.50;5053843;28;20928;-72
2023/03/02 04:26:31;;;;;;;7.70;5.57;;;;;;;6.20;100.00;95096.03;5034943;28;20450;-72
2023/03/02 04:28:57;;;;;;;6.60;4.70;;;;;;;6.01;100.00;95098.13;5053975;28;20922;-73
2023/03/02 04:31:24;;;;;;;3.40;3.10;;;;;;;5.99;100.00;95094.78;5053791;28;20453;-72
2023/03/02 04:33:51;;;;;;;3.77;3.47;;;;;;;6.12;100.00;95090.47;5053613;28;20531;-73
2023/03/02 04:36:19;;;;;;;3.30;2.70;;;;;;;6.08;100.00;95096.00;5053534;28;20489;-73
2023/03/02 04:38:45;;;;;;;4.03;3.20;;;;;;;5.85;100.00;95097.41;5053515;28;20561;-72
2023/03/02 04:41:14;;;;;;;3.63;3.33;;;;;;;5.85;100.00;95097.41;5053540;28;20476;-72
2023/03/02 04:43:40;;;;;;;4.40;4.00;;;;;;;5.96;100.00;95101.97;5053330;28;20499;-73
2023/03/02 04:46:07;;;;;;;5.80;4.10;;;;;;;5.98;100.00;95106.13;5051132;28;20482;-72
2023/03/02 04:48:35;;;;;;;4.23;3.90;;;;;;;6.08;100.00;95107.25;5052663;28;20446;-72
2023/03/02 04:51:02;;;;;;;5.97;5.13;;;;;;;6.16;100.00;95104.13;5052919;28;20506;-72
2023/03/02 04:53:29;;;;;;;6.30;4.90;;;;;;;6.19;100.00;95104.78;5053098;28;20462;-71
2023/03/02 04:55:55;;;;;;;6.80;5.07;;;;;;;6.09;100.00;95103.69;5053525;28;20543;-73
2023/03/02 04:58:23;;;;;;;7.90;6.30;;;;;;;6.11;100.00;95111.41;5053564;28;20527;-72
2023/03/02 05:00:50;;;;;;;5.20;4.77;;;;;;;5.98;100.00;95106.13;5053313;28;20452;-72
2023/03/02 05:03:17;;;;;;;7.57;5.80;;;;;;;6.03;100.00;95111.88;5053314;28;20445;-73
2023/03/02 05:05:46;;;;;;;7.87;6.30;;;;;;;6.08;100.00;95107.25;5053149;28;20441;-73
2023/03/02 05:08:13;;;;;;;8.07;6.07;;;;;;;6.16;100.00;95112.78;5053261;28;20769;-73
2023/03/02 05:10:40;;;;;;;8.00;6.83;;;;;;;6.13;100.00;95107.78;5053258;28;20529;-72
2023/03/02 05:13:07;;;;;;;7.83;7.10;;;;;;;6.27;100.00;95116.47;5053090;28;20441;-72
2023/03/02 05:15:36;;;;;;;6.97;6.37;;;;;;;6.19;100.00;95109.97;5053198;28;20506;-73
2023/03/02 05:18:05;;;;;;;5.80;5.30;;;;;;;6.29;100.00;95119.81;5052941;28;21016;-73
2023/03/02 05:20:32;;;;;;;7.17;5.97;;;;;;;6.20;100.00;95109.06;5052713;28;20499;-73
2023/03/02 05:23:01;;;;;;;6.37;5.77;;;;;;;6.19;100.00;95109.16;5052993;28;20446;-74
2023/03/02 05:25:31;;;;;;;6.97;6.20;;;;;;;6.26;100.00;95112.19;5052916;28;20448;-74
2023/03/02 05:27:58;;;;;;;9.50;6.93;;;;;;;5.99;100.00;95115.63;5053032;28;20863;-73
2023/03/02 05:30:25;;;;;;;6.83;5.90;;;;;;;6.02;100.00;95123.22;5052657;28;20441;-74
2023/03/02 05:32:54;;;;;;;11.33;8.00;;;;;;;6.12;100.00;95128.72;5055117;28;20506;-74
2023/03/02 05:35:22;;;;;;;10.47;7.77;;;;;;;6.18;100.00;95129.16;5052831;28;20477;-74
2023/03/02 05:37:49;;;;;;;8.23;7.00;;;;;;;6.33;100.00;95129.09;5052539;28;20960;-73
2023/03/02 05:40:18;;;;;;;11.47;7.93;;;;;;;6.46;100.00;95132.59;5033651;28;20524;-73
2023/03/02 05:42:45;;;;;;;9.30;8.40;;;;;;;6.62;100.00;95135.03;5052745;28;20454;-74
2023/03/02 05:45:19;;;;;;;8.80;7.53;;;;;;;6.68;100.00;95132.88;5052327;28;20511;-74
2023/03/02 05:47:45;;;;;;;8.30;6.30;;;;;;;6.77;100.00;95128.81;5017320;28;20454;-75
2023/03/02 05:50:14;;;;;;;9.90;7.17;;;;;;;6.57;100.00;95124.06;5052653;28;20448;-74
2023/03/02 05:52:40;;;;;;;7.80;6.00;;;;;;;6.56;100.00;95138.03;5052698;28;20446;-74
2023/03/02 05:55:08;;;;;;;7.50;6.80;;;;;;;6.34;100.00;95138.59;5052420;28;20485;-73
2023/03/02 05:57:36;;;;;;;8.20;7.40;;;;;;;6.27;100.00;95138.16;5052316;28;20486;-74
2023/03/02 06:00:04;;;;;;;6.23;5.60;;;;;;;6.15;100.00;95147.59;5052476;28;20437;-74
2023/03/02 06:02:31;;;;;;;7.73;6.80;;;;;;;6.13;100.00;95140.81;5052594;28;20499;-73
2023/03/02 06:04:58;;;;;;;8.27;7.23;;;;;;;6.16;100.00;95141.44;5017237;28;20454;-73
2023/03/02 06:07:28;;;;;;;9.57;6.17;;;;;;;6.15;100.00;95134.56;5052362;28;20453;-73
2023/03/02 06:09:56;;;;;;;9.53;7.33;;;;;;;6.26;100.00;95139.09;5017961;28;20430;-74
2023/03/02 06:12:22;;;;;;;8.00;7.20;;;;;;;6.23;100.00;95141.88;5051184;28;21167;-74
2023/03/02 06:14:49;;;;;;;8.70;7.40;;;;;;;6.26;100.00;95151.28;5052403;28;20658;-73
2023/03/02 06:17:16;;;;;;;10.27;8.33;;;;;;;6.33;100.00;95150.78;5052111;28;20491;-75
2023/03/02 06:19:43;;;;;;;10.83;8.00;;;;;;;6.27;100.00;95151.19;5052425;28;20454;-74
2023/03/02 06:22:10;;;;;;;11.07;8.87;;;;;;;6.27;100.00;95148.56;5052141;28;20511;-74
2023/03/02 06:24:38;;;;;;;14.27;10.23;;;;;;;6.24;100.00;95153.16;5052209;28;20450;-73
2023/03/02 06:27:05;;;;;;;18.60;9.53;;;;;;;6.24;100.00;95160.97;5052169;28;20461;-73
2023/03/02 06:29:31;;;;;;;13.00;9.20;;;;;;;6.24;100.00;95163.56;5052332;28;20454;-73
2023/03/02 06:31:58;;;;;;;11.13;8.73;;;;;;;6.21;100.00;95162.84;5052588;28;20450;-73
2023/03/02 06:34:25;;;;;;;9.97;7.43;;;;;;;6.22;100.00;95164.50;5054930;28;20575;-73
2023/03/02 06:36:52;;;;;;;9.40;7.43;;;;;;;6.29;100.00;95162.34;5055451;28;20535;-74
2023/03/02 06:39:19;;;;;;;8.43;7.43;;;;;;;6.13;100.00;95162.50;5055420;28;20462;-74
2023/03/02 06:41:48;;;;;;;10.82;9.00;;;;;;;6.30;100.00;95152.75;5036952;28;20450;-74
2023/03/02 06:44:17;;;;;;;10.50;9.00;;;;;;;6.17;100.00;95153.53;5056047;28;20287;-73
2023/03/02 06:46:44;;;;;;;11.57;9.00;;;;;;;6.20;100.00;95166.38;5056118;28;20437;-74
2023/03/02 06:49:11;;;;;;;9.50;8.23;;;;;;;6.10;100.00;95161.84;5053554;28;20514;-74
2023/03/02 06:51:38;;;;;;;10.23;7.73;;;;;;;6.19;100.00;95162.09;5055796;28;20532;-73
2023/03/02 06:54:07;;;;;;;11.43;9.20;;;;;;;6.26;100.00;95161.69;5055696;28;20511;-73
2023/03/02 06:56:34;;;;;;;12.07;8.70;;;;;;;6.30;100.00;95164.00;5036768;28;20858;-73
2023/03/02 06:59:02;;;;;;;12.10;9.77;;;;;;;6.28;100.00;95162.44;5036791;28;20441;-74
2023/03/02 07:01:31;;;;;;;11.97;10.07;;;;;;;6.33;100.00;95157.75;5055677;28;20481;-73
2023/03/02 07:03:58;;;;;;;11.23;8.47;;;;;;;6.28;100.00;95165.88;5055580;28;20446;-74
2023/03/02 07:06:25;;;;;;;12.20;9.70;;;;;;;6.36;100.00;95162.78;5036589;28;20491;-72
2023/03/02 07:08:51;;;;;;;11.53;9.40;;;;;;;6.24;100.00;95163.56;5055684;28;20444;-73
2023/03/02 07:11:18;;;;;;;9.90;9.00;;;;;;;6.25;100.00;95163.47;5055289;28;20457;-73
2023/03/02 07:13:45;;;;;;;11.87;10.23;;;;;;;6.45;100.00;95167.41;5055669;28;20449;-73
2023/03/02 07:16:14;;;;;;;10.70;7.93;;;;;;;6.34;100.00;95165.47;5035749;28;20936;-74
2023/03/02 07:18:41;;;;;;;9.43;8.07;;;;;;;6.13;100.00;95167.69;5054960;28;20482;-75
2023/03/02 07:21:08;;;;;;;9.67;6.83;;;;;;;6.15;100.00;95160.63;5055588;28;20437;-74
2023/03/02 07:23:35;;;;;;;12.97;10.33;;;;;;;6.18;100.00;95162.19;5055521;28;20454;-73
2023/03/02 07:26:07;;;;;;;13.93;9.80;;;;;;;6.12;100.00;95163.41;5055312;28;20449;-73
2023/03/02 07:28:34;;;;;;;12.90;9.57;;;;;;;6.12;100.00;95160.81;5055387;28;20445;-73
2023/03/02 07:31:00;;;;;;;16.20;11.77;;;;;;;6.26;100.00;95159.09;5055161;28;20449;-74
2023/03/02 07:33:29;;;;;;;10.10;8.50;;;;;;;6.32;100.00;95158.69;5055072;28;20511;-73
2023/03/02 07:35:55;;;;;;;12.50;7.97;;;;;;;6.23;100.00;95160.13;5055269;28;20439;-74
2023/03/02 07:38:22;;;;;;;11.00;8.63;;;;;;;6.31;100.00;95162.25;5054863;28;20972;-74
2023/03/02 07:40:49;;;;;;;9.13;7.40;;;;;;;6.43;100.00;95166.69;5054797;28;20461;-74
2023/03/02 07:43:16;;;;;;;10.67;8.00;;;;;;;6.42;100.00;95168.47;5054652;28;20477;-73
2023/03/02 07:45:43;;;;;;;15.30;9.80;;;;;;;6.35;100.00;95167.16;5053528;28;20441;-74
2023/03/02 07:48:10;;;;;;;9.80;8.20;;;;;;;6.31;100.00;95170.88;5053409;28;20458;-73
2023/03/02 07:50:38;;;;;;;9.90;6.90;;;;;;;6.26;100.00;95172.13;5053391;28;20499;-74
2023/03/02 07:53:05;;;;;;;8.87;7.73;;;;;;;6.21;100.00;95165.44;5054459;28;20508;-76
2023/03/02 07:55:32;;;;;;;11.47;8.27;;;;;;;6.26;100.00;95166.91;5053505;28;20442;-75
2023/03/02 07:57:58;;;;;;;6.80;6.10;;;;;;;6.29;100.00;95171.94;5054854;28;20554;-74
2023/03/02 08:00:25;;;;;;;41.23;28.03;;;;;;;6.29;100.00;95167.53;5054618;28;20451;-73
2023/03/02 08:02:52;;;;;;;12.50;8.83;;;;;;;6.27;100.00;95169.41;5054429;28;20486;-73
2023/03/02 08:05:19;;;;;;;13.03;9.83;;;;;;;6.25;100.00;95165.25;5054416;28;20519;-74
2023/03/02 08:07:47;;;;;;;11.73;8.90;;;;;;;6.39;100.00;95162.59;5054010;28;20768;-72
2023/03/02 08:10:14;;;;;;;10.40;8.33;;;;;;;6.48;100.00;95155.03;5054213;28;20684;-74
2023/03/02 08:12:42;;;;;;;9.73;7.40;;;;;;;6.40;100.00;95159.91;5054181;28;20451;-73
2023/03/02 08:15:10;;;;;;;6.27;5.67;;;;;;;6.37;100.00;95152.28;5054088;28;20484;-73
2023/03/02 08:17:37;;;;;;;8.87;6.53;;;;;;;6.30;100.00;95153.59;5054039;28;20485;-74
2023/03/02 08:20:05;;;;;;;27.70;20.77;;;;;;;6.37;100.00;95154.88;5054146;28;20445;-74
2023/03/02 08:22:32;;;;;;;11.83;7.60;;;;;;;6.36;100.00;95150.59;5054332;28;20451;-73
2023/03/02 08:25:00;;;;;;;9.63;7.47;;;;;;;6.26;100.00;95151.28;5054274;28;20449;-73
2023/03/02 08:27:27;;;;;;;8.70;6.60;;;;;;;6.26;100.00;95156.50;5053988;28;20446;-73
2023/03/02 08:29:54;;;;;;;8.93;7.10;;;;;;;6.14;100.00;95153.75;5035013;28;20503;-73
2023/03/02 08:32:20;;;;;;;10.00;6.80;;;;;;;6.27;100.00;95151.19;5034854;28;21240;-73
2023/03/02 08:34:50;;;;;;;9.07;7.30;;;;;;;6.27;100.00;95147.72;5053702;28;20494;-73
2023/03/02 08:37:17;;;;;;;13.30;8.53;;;;;;;6.33;100.00;95147.34;5053353;28;20482;-73
2023/03/02 08:39:44;;;;;;;8.80;7.57;;;;;;;6.43;100.00;95148.44;5053001;28;20445;-73
2023/03/02 08:42:12;;;;;;;9.87;8.30;;;;;;;6.41;100.00;95147.69;5053174;28;20446;-73
2023/03/02 08:44:38;;;;;;;9.17;7.50;;;;;;;6.51;100.00;95135.72;5053088;28;20968;-73
2023/03/02 08:47:05;;;;;;;9.17;7.67;;;;;;;6.37;100.00;95159.25;5052899;28;20940;-72
2023/03/02 08:49:32;;;;;;;7.00;6.00;;;;;;;6.36;100.00;95149.75;5053267;28;20486;-71
2023/03/02 08:51:59;;;;;;;11.60;9.67;;;;;;;6.59;100.00;95149.09;5053012;28;20445;-73
2023/03/02 08:54:27;;;;;;;7.67;6.93;;;;;;;6.64;100.00;95146.19;5053274;28;20798;-73
2023/03/02 08:56:53;;;;;;;6.73;4.40;;;;;;;6.53;100.00;95154.72;5033560;28;20521;-73
2023/03/02 08:59:21;;;;;;;5.90;5.30;;;;;;;6.44;100.00;95147.50;5053094;28;20445;-74
2023/03/02 09:01:49;;;;;;;4.90;4.50;;;;;;;6.58;100.00;95155.25;5053278;28;20872;-73
2023/03/02 09:04:15;;;;;;;7.20;4.80;;;;;;;6.42;100.00;95149.38;5033812;28;20514;-74
2023/03/02 09:06:44;;;;;;;10.67;7.80;;;;;;;6.45;100.00;95149.19;5052851;28;20990;-71
2023/03/02 09:09:12;;;;;;;8.30;6.93;;;;;;;6.47;100.00;95150.75;5052519;28;20528;-73
2023/03/02 09:11:41;;;;;;;4.27;3.90;;;;;;;6.56;100.00;95151.91;5052403;28;20507;-74
2023/03/02 09:14:08;;;;;;;6.50;4.93;;;;;;;6.65;100.00;95143.50;5052514;28;20670;-73
2023/03/02 09:16:36;;;;;;;5.80;5.00;;;;;;;6.63;100.00;95158.38;5052582;28;20495;-72
2023/03/02 09:19:04;;;;;;;4.77;4.30;;;;;;;6.65;100.00;95148.72;5052623;28;20540;-73
2023/03/02 09:21:30;;;;;;;6.07;5.47;;;;;;;6.73;100.00;95145.59;5052662;28;20477;-73
2023/03/02 09:23:57;;;;;;;5.90;5.40;;;;;;;6.68;100.00;95145.91;5052183;28;20504;-73
2023/03/02 09:26:24;;;;;;;6.07;5.47;;;;;;;6.68;100.00;95145.09;5052556;28;20531;-73
2023/03/02 09:28:51;;;;;;;6.97;6.20;;;;;;;6.77;100.00;95147.06;5052423;28;20917;-73
2023/03/02 09:31:18;;;;;;;21.23;17.50;;;;;;;6.72;100.00;95149.16;5052453;28;20445;-73
2023/03/02 09:33:46;;;;;;;5.50;5.00;;;;;;;6.90;100.00;95147.94;5052163;28;20498;-73
2023/03/02 09:36:19;;;;;;;5.37;4.00;;;;;;;6.76;100.00;95145.41;5052146;28;20454;-74
2023/03/02 09:38:47;;;;;;;3.70;3.50;;;;;;;6.77;100.00;95153.13;5052217;28;20489;-72
2023/03/02 09:41:45;;;;;;;4.17;3.77;;;;;;;6.77;100.00;95147.91;5017332;28;20503;-72
2023/03/02 09:44:34;;;;;;;4.63;4.17;;;;;;;6.93;100.00;95145.09;5051707;28;20446;-73
2023/03/02 09:47:05;;;;;;;5.70;4.93;;;;;;;7.13;100.00;95151.63;5052097;28;20516;-72
2023/03/02 09:49:53;;;;;;;7.40;4.00;;;;;;;7.24;100.00;95141.31;5052582;28;20953;-73
2023/03/02 09:52:29;;;;;;;5.40;4.90;;;;;;;7.39;100.00;95142.03;5052608;28;20504;-73
2023/03/02 09:54:57;;;;;;;5.90;4.23;;;;;;;7.50;100.00;95149.13;5052455;28;20457;-72
2023/03/02 09:57:28;;;;;;;5.20;4.80;;;;;;;7.45;100.00;95145.03;5051731;28;20532;-74
2023/03/02 09:59:59;;;;;;;5.87;4.83;;;;;;;7.61;100.00;95146.63;5033520;28;20934;-73
2023/03/02 10:02:29;;;;;;;5.07;4.27;;;;;;;7.57;99.53;95146.00;5052386;28;20447;-74
2023/03/02 10:05:02;;;;;;;9.07;8.03;;;;;;;7.57;100.00;95137.31;5052313;28;20450;-73
2023/03/02 10:07:31;;;;;;;6.27;4.90;;;;;;;7.70;100.00;95138.13;5051539;28;20451;-74
2023/03/02 10:10:04;;;;;;;5.00;4.60;;;;;;;7.72;99.97;95137.09;5051911;28;20845;-72
2023/03/02 10:12:48;;;;;;;3.90;3.60;;;;;;;7.81;98.58;95143.47;5052183;28;20513;-74
2023/03/02 10:15:18;;;;;;;6.17;4.93;;;;;;;7.43;98.94;95144.31;5052117;28;20512;-72
2023/03/02 10:17:56;;;;;;;9.00;7.13;;;;;;;7.56;100.00;95146.94;5052211;28;20481;-78
2023/03/02 10:20:30;;;;;;;9.47;7.27;;;;;;;7.65;100.00;95133.25;5052237;28;20447;-74
2023/03/02 10:23:05;;;;;;;7.83;5.87;;;;;;;7.44;100.00;95137.31;5052299;28;20516;-74
2023/03/02 10:25:47;;;;;;;8.30;7.20;;;;;;;7.46;100.00;95128.44;5052008;28;20927;-73
2023/03/02 10:28:19;;;;;;;7.73;6.87;;;;;;;7.40;100.00;95122.81;5052114;28;20524;-73
2023/03/02 10:30:50;;;;;;;6.97;6.27;;;;;;;7.36;100.00;95122.19;5051688;28;20458;-73
2023/03/02 10:33:21;;;;;;;8.00;7.30;;;;;;;7.39;100.00;95121.13;5017330;28;20465;-74
2023/03/02 10:35:53;;;;;;;6.93;6.23;;;;;;;7.55;100.00;95119.16;5052135;28;20455;-73
2023/03/02 10:38:21;;;;;;;7.93;7.20;;;;;;;7.65;100.00;95121.97;5032913;28;20491;-74
2023/03/02 10:40:52;;;;;;;7.90;7.10;;;;;;;7.42;100.00;95119.16;5052171;28;20446;-73
2023/03/02 10:43:25;;;;;;;11.10;7.07;;;;;;;7.44;100.00;95117.25;5051290;28;20443;-73
2023/03/02 10:45:59;;;;;;;7.13;6.13;;;;;;;7.41;100.00;95117.47;5051533;28;20453;-73
2023/03/02 10:48:26;;;;;;;6.77;5.00;;;;;;;7.30;100.00;95114.78;5051706;28;20449;-73
2023/03/02 10:50:56;;;;;;;6.57;5.97;;;;;;;7.21;100.00;95111.94;5052372;28;20500;-73
2023/03/02 10:53:23;;;;;;;10.57;6.73;;;;;;;7.28;100.00;95106.22;5051810;28;20482;-74
2023/03/02 10:55:52;;;;;;;7.90;7.00;;;;;;;7.21;100.00;95111.94;5051741;28;20447;-74
2023/03/02 10:58:24;;;;;;;6.30;5.70;;;;;;;7.31;100.00;95105.19;5052007;28;20558;-74
2023/03/02 11:01:02;;;;;;;8.23;6.20;;;;;;;7.33;100.00;95103.28;5052007;28;20451;-74
2023/03/02 11:03:30;;;;;;;7.57;6.77;;;;;;;7.42;100.00;95103.50;5051793;28;20452;-74
2023/03/02 11:06:09;;;;;;;7.13;6.40;;;;;;;7.36;100.00;95097.88;5051755;28;20446;-74
2023/03/02 11:08:37;;;;;;;7.87;6.03;;;;;;;7.34;100.00;95094.53;5051565;28;20451;-73
2023/03/02 11:11:04;;;;;;;6.53;5.90;;;;;;;7.27;100.00;95096.72;5033140;28;20583;-74
2023/03/02 11:13:33;;;;;;;7.40;6.40;;;;;;;7.36;100.00;95095.25;5051692;28;20442;-72
2023/03/02 11:16:01;;;;;;;7.57;6.77;;;;;;;7.51;100.00;95102.00;5051782;28;20932;-73
2023/03/02 11:18:33;;;;;;;7.13;5.60;;;;;;;7.32;100.00;95089.41;5051457;28;21043;-73
2023/03/02 11:21:05;;;;;;;8.43;7.30;;;;;;;7.48;100.00;95089.16;5055201;28;20447;-73
2023/03/02 11:23:40;;;;;;;8.70;7.50;;;;;;;7.61;100.00;95083.94;5055264;28;20446;-72
2023/03/02 11:26:18;;;;;;;7.97;6.60;;;;;;;7.45;100.00;95095.44;5055407;28;20447;-75
2023/03/02 11:28:52;;;;;;;7.70;6.40;;;;;;;7.27;100.00;95085.44;5027148;28;20458;-74
2023/03/02 11:31:27;;;;;;;10.10;7.37;;;;;;;7.40;100.00;95076.66;5036340;28;20430;-73
2023/03/02 11:34:07;;;;;;;13.00;7.30;;;;;;;7.58;100.00;95071.09;5055019;28;20485;-74
2023/03/02 11:36:45;;;;;;;17.53;9.13;;;;;;;7.69;100.00;95068.56;5055121;28;20446;-73
2023/03/02 11:39:17;;;;;;;8.40;7.43;;;;;;;7.84;100.00;95067.50;5055133;28;20830;-74